createdAt,value
2023-03-13T00:02:51.729Z,99925.00
2023-03-13T00:05:57.644Z,99928.19
2023-03-13T00:09:02.540Z,99922.38
2023-03-13T00:12:05.854Z,99910.31
2023-03-13T00:15:09.725Z,99905.13
2023-03-13T00:18:12.489Z,99897.31
2023-03-13T00:21:15.449Z,99896.72
2023-03-13T00:24:19.427Z,99890.47
2023-03-13T00:27:22.012Z,99881.75
2023-03-13T00:30:24.604Z,99883.34
2023-03-13T00:33:27.206Z,99883.09
2023-03-13T00:36:31.658Z,99869.91
2023-03-13T00:39:35.697Z,99867.94
2023-03-13T00:42:38.312Z,99865.56
2023-03-13T00:45:40.894Z,99867.78
2023-03-13T00:48:43.687Z,99856.00
2023-03-13T00:51:46.276Z,99854.22
2023-03-13T00:54:50.224Z,99838.41
2023-03-13T00:57:52.814Z,99838.25
2023-03-13T01:00:55.654Z,99831.66
2023-03-13T01:04:00.521Z,99825.66
2023-03-13T01:07:03.130Z,99826.31
2023-03-13T01:10:08.541Z,99821.91
2023-03-13T01:13:11.176Z,99813.03
2023-03-13T01:16:15.635Z,99809.78
2023-03-13T01:19:18.399Z,99802.91
2023-03-13T01:22:20.971Z,99797.34
2023-03-13T01:25:24.938Z,99791.94
2023-03-13T01:28:28.349Z,99789.72
2023-03-13T01:31:32.688Z,99783.13
2023-03-13T01:34:35.399Z,99782.84
2023-03-13T01:37:37.956Z,99766.84
2023-03-13T01:40:43.044Z,99765.03
2023-03-13T01:43:46.746Z,99751.16
2023-03-13T01:46:49.513Z,99744.91
2023-03-13T01:49:53.605Z,99734.03
2023-03-13T01:52:56.484Z,99723.19
2023-03-13T01:56:01.777Z,99722.34
2023-03-13T01:59:07.437Z,99710.72
2023-03-13T02:02:10.425Z,99705.38
2023-03-13T02:05:14.597Z,99684.25
2023-03-13T02:08:21.716Z,99686.53
2023-03-13T02:11:33.254Z,99681.78
2023-03-13T02:14:38.328Z,99679.13
2023-03-13T02:17:42.202Z,99667.72
2023-03-13T02:20:45.095Z,99663.50
2023-03-13T02:23:55.017Z,99656.16
2023-03-13T02:26:59.128Z,99652.28
2023-03-13T02:30:02.197Z,99647.47
2023-03-13T02:33:05.622Z,99638.34
2023-03-13T02:36:09.301Z,99634.19
2023-03-13T02:39:15.313Z,99630.50
2023-03-13T02:42:22.343Z,99625.81
2023-03-13T02:45:25.111Z,99621.34
2023-03-13T02:48:33.163Z,99613.78
2023-03-13T02:51:40.722Z,99608.38
2023-03-13T02:54:46.464Z,99617.34
2023-03-13T02:57:50.505Z,99609.16
2023-03-13T03:00:53.857Z,99608.13
2023-03-13T03:03:56.681Z,99591.38
2023-03-13T03:06:59.586Z,99589.34
2023-03-13T03:10:02.507Z,99586.06
2023-03-13T03:13:06.510Z,99573.84
2023-03-13T03:16:10.441Z,99566.63
2023-03-13T03:19:13.260Z,99554.59
2023-03-13T03:22:16.033Z,99553.06
2023-03-13T03:25:18.610Z,99567.31
2023-03-13T03:28:22.541Z,99545.25
2023-03-13T03:31:25.543Z,99538.41
2023-03-13T03:34:28.126Z,99533.50
2023-03-13T03:37:30.700Z,99535.06
2023-03-13T03:40:33.352Z,99517.72
2023-03-13T03:43:37.731Z,99515.94
2023-03-13T03:46:40.438Z,99508.41
2023-03-13T03:49:43.088Z,99496.44
2023-03-13T03:52:45.702Z,99494.06
2023-03-13T03:55:48.322Z,99485.59
2023-03-13T03:58:52.329Z,99478.19
2023-03-13T04:01:54.964Z,99473.94
2023-03-13T04:04:57.588Z,99478.16
2023-03-13T04:08:00.165Z,99464.88
2023-03-13T04:11:03.158Z,99451.16
2023-03-13T04:14:07.706Z,99447.94
2023-03-13T04:17:10.259Z,99436.69
2023-03-13T04:20:14.412Z,99442.38
2023-03-13T04:23:17.061Z,99422.13
2023-03-13T04:26:19.683Z,99422.88
2023-03-13T04:29:23.625Z,99416.44
2023-03-13T04:32:26.547Z,99403.44
2023-03-13T04:35:29.231Z,99396.13
2023-03-13T04:38:31.829Z,99378.44
2023-03-13T04:41:34.468Z,99382.00
2023-03-13T04:44:38.704Z,99368.97
2023-03-13T04:47:41.491Z,99364.78
2023-03-13T04:50:44.068Z,99351.50
2023-03-13T04:53:46.788Z,99341.91
2023-03-13T04:56:49.656Z,99336.00
2023-03-13T04:59:53.593Z,99322.09
2023-03-13T05:02:56.195Z,99310.91
2023-03-13T05:05:58.763Z,99299.47
2023-03-13T05:09:01.388Z,99291.97
2023-03-13T05:12:04.014Z,99281.41
2023-03-13T05:15:09.335Z,99271.63
2023-03-13T05:18:12.790Z,99252.38
2023-03-13T05:21:15.487Z,99250.22
2023-03-13T05:24:18.091Z,99242.78
2023-03-13T05:27:20.723Z,99228.47
2023-03-13T05:30:24.939Z,99220.75
2023-03-13T05:33:27.503Z,99212.38
2023-03-13T05:36:30.086Z,99210.78
2023-03-13T05:39:32.774Z,99213.28
2023-03-13T05:42:35.359Z,99223.00
2023-03-13T05:45:39.330Z,99217.19
2023-03-13T05:48:41.966Z,99211.88
2023-03-13T05:51:44.589Z,99207.88
2023-03-13T05:54:47.269Z,99192.69
2023-03-13T05:57:50.220Z,99194.44
2023-03-13T06:00:54.217Z,99184.53
2023-03-13T06:03:57.024Z,99176.38
2023-03-13T06:06:59.650Z,99178.75
2023-03-13T06:10:02.248Z,99162.25
2023-03-13T06:13:18.740Z,99173.13
2023-03-13T06:16:23.686Z,99163.28
2023-03-13T06:19:26.709Z,99161.63
2023-03-13T06:22:30.738Z,99166.50
2023-03-13T06:25:35.504Z,99153.38
2023-03-13T06:28:38.250Z,99147.78
2023-03-13T06:31:42.466Z,99152.38
2023-03-13T06:34:45.334Z,99146.09
2023-03-13T06:37:47.970Z,99144.53
2023-03-13T06:40:50.560Z,99134.75
2023-03-13T06:43:53.148Z,99139.34
2023-03-13T06:46:57.439Z,99118.69
2023-03-13T06:50:00.139Z,99115.19
2023-03-13T06:53:02.712Z,99110.31
2023-03-13T06:56:06.123Z,99098.72
2023-03-13T06:59:08.910Z,99093.78
2023-03-13T07:02:13.740Z,99082.78
2023-03-13T07:05:16.538Z,99078.97
2023-03-13T07:08:19.280Z,99075.19
2023-03-13T07:11:21.997Z,99075.38
2023-03-13T07:14:24.661Z,99083.00
2023-03-13T07:17:28.831Z,99071.44
2023-03-13T07:20:31.547Z,99064.94
2023-03-13T07:23:36.308Z,99057.97
2023-03-13T07:26:39.097Z,99047.41
2023-03-13T07:29:41.699Z,99057.59
2023-03-13T07:32:45.786Z,99055.50
2023-03-13T07:35:49.339Z,99049.47
2023-03-13T07:38:53.170Z,99043.06
2023-03-13T07:41:55.755Z,99043.81
2023-03-13T07:44:58.356Z,99049.56
2023-03-13T07:48:02.282Z,99038.41
2023-03-13T07:51:06.344Z,99033.50
2023-03-13T07:54:09.090Z,99029.06
2023-03-13T07:57:12.003Z,99032.66
2023-03-13T08:00:17.462Z,99024.94
2023-03-13T08:03:21.806Z,99020.31
2023-03-13T08:06:26.588Z,99019.63
2023-03-13T08:09:29.232Z,99023.34
2023-03-13T08:12:31.843Z,99022.41
2023-03-13T08:15:34.557Z,99015.97
2023-03-13T08:18:40.448Z,99007.94
2023-03-13T08:21:43.072Z,99020.78
2023-03-13T08:24:45.685Z,99011.69
2023-03-13T08:27:48.418Z,99009.44
2023-03-13T08:30:51.033Z,99004.22
2023-03-13T08:33:55.130Z,99005.59
2023-03-13T08:36:58.128Z,99012.84
2023-03-13T08:40:01.274Z,99008.66
2023-03-13T08:43:03.912Z,98992.41
2023-03-13T08:46:06.652Z,98990.72
2023-03-13T08:49:11.426Z,98983.97
2023-03-13T08:52:14.283Z,98989.31
2023-03-13T08:55:17.285Z,98992.47
2023-03-13T08:58:21.105Z,98979.56
2023-03-13T09:01:26.187Z,98972.72
2023-03-13T09:04:30.232Z,98973.97
2023-03-13T09:07:32.909Z,98966.66
2023-03-13T09:10:36.472Z,98970.38
2023-03-13T09:13:42.388Z,98977.69
2023-03-13T09:16:46.381Z,98978.09
2023-03-13T09:19:59.711Z,98980.00
2023-03-13T09:23:03.126Z,98959.31
2023-03-13T09:26:06.411Z,98957.28
2023-03-13T09:29:09.172Z,98959.59
2023-03-13T09:32:11.933Z,98956.38
2023-03-13T09:35:15.896Z,98962.66
2023-03-13T09:38:18.928Z,98961.25
2023-03-13T09:41:26.787Z,98960.81
2023-03-13T09:44:34.739Z,98945.66
2023-03-13T09:47:44.044Z,98949.75
2023-03-13T09:51:00.723Z,98958.47
2023-03-13T09:54:07.187Z,98955.25
2023-03-13T09:57:17.588Z,98952.25
2023-03-13T10:00:25.478Z,98959.81
2023-03-13T10:03:31.442Z,98960.94
2023-03-13T10:06:40.101Z,98964.97
2023-03-13T10:09:44.283Z,98963.44
2023-03-13T10:12:48.925Z,98963.66
2023-03-13T10:15:55.721Z,98975.06
2023-03-13T10:19:00.915Z,98969.53
2023-03-13T10:22:13.079Z,98965.47
2023-03-13T10:25:25.839Z,98972.75
2023-03-13T10:28:28.524Z,98968.38
2023-03-13T10:31:33.901Z,98971.78
2023-03-13T10:34:50.844Z,98994.31
2023-03-13T10:38:04.406Z,98984.97
2023-03-13T10:41:19.271Z,99003.47
2023-03-13T10:44:24.836Z,98986.38
2023-03-13T10:47:28.455Z,98981.97
2023-03-13T10:50:35.376Z,98969.59
2023-03-13T10:53:39.500Z,98945.94
2023-03-13T10:56:42.455Z,98943.78
2023-03-13T10:59:47.757Z,98931.56
2023-03-13T11:02:50.970Z,98927.25
2023-03-13T11:05:58.962Z,98929.91
2023-03-13T11:09:11.820Z,98929.41
2023-03-13T11:12:21.013Z,98915.97
2023-03-13T11:15:30.599Z,98917.81
2023-03-13T11:18:41.567Z,98913.94
2023-03-13T11:21:57.600Z,98916.63
2023-03-13T11:25:17.915Z,98903.53
2023-03-13T11:28:30.814Z,98904.72
2023-03-13T11:31:37.008Z,98909.06
2023-03-13T11:34:46.053Z,98887.50
2023-03-13T11:37:52.184Z,98884.00
2023-03-13T11:41:07.409Z,98886.31
2023-03-13T11:44:41.507Z,98886.53
2023-03-13T11:47:53.114Z,98872.03
2023-03-13T11:51:02.100Z,98887.03
2023-03-13T11:54:25.007Z,98894.16
2023-03-13T11:57:31.806Z,98896.19
2023-03-13T12:00:38.919Z,98886.34
2023-03-13T12:03:46.055Z,98867.56
2023-03-13T12:06:55.945Z,98859.31
2023-03-13T12:10:02.212Z,98861.00
2023-03-13T12:13:11.357Z,98861.50
2023-03-13T12:16:20.127Z,98848.78
2023-03-13T12:19:31.718Z,98841.16
2023-03-13T12:22:39.709Z,98835.31
2023-03-13T12:25:48.402Z,98835.03
2023-03-13T12:29:03.420Z,98837.75
2023-03-13T12:32:13.740Z,98830.84
2023-03-13T12:35:23.487Z,98830.78
2023-03-13T12:38:29.252Z,98820.97
2023-03-13T12:41:38.506Z,98810.31
2023-03-13T12:44:42.662Z,98818.63
2023-03-13T12:48:16.567Z,98822.19
2023-03-13T12:51:40.323Z,98800.22
2023-03-13T12:54:54.845Z,98805.25
2023-03-13T12:58:28.729Z,98794.44
2023-03-13T13:01:36.717Z,98792.63
2023-03-13T13:04:45.537Z,98809.53
2023-03-13T13:07:54.821Z,98787.31
2023-03-13T13:11:44.618Z,98789.16
2023-03-13T13:15:18.613Z,98804.59
2023-03-13T13:18:28.897Z,98796.09
2023-03-13T13:21:33.388Z,98775.22
2023-03-13T13:24:49.394Z,98773.88
2023-03-13T13:27:52.327Z,98783.38
2023-03-13T13:30:56.995Z,98765.97
2023-03-13T13:34:01.194Z,98767.94
2023-03-13T13:37:24.708Z,98764.47
2023-03-13T13:40:30.337Z,98763.34
2023-03-13T13:43:35.157Z,98733.38
2023-03-13T13:46:45.236Z,98738.44
2023-03-13T13:49:57.280Z,98731.84
2023-03-13T13:53:33.211Z,98732.91
2023-03-13T13:56:48.358Z,98728.94
2023-03-13T13:59:55.498Z,98756.31
2023-03-13T14:02:58.472Z,98730.25
2023-03-13T14:06:04.971Z,98724.97
2023-03-13T14:09:21.096Z,98720.44
2023-03-13T14:12:29.146Z,98723.78
2023-03-13T14:15:32.833Z,98725.88
2023-03-13T14:18:35.592Z,98707.44
2023-03-13T14:21:39.689Z,98712.03
2023-03-13T14:24:42.392Z,98683.50
2023-03-13T14:27:45.428Z,98698.63
2023-03-13T14:30:49.829Z,98694.56
2023-03-13T14:33:52.665Z,98687.50
2023-03-13T14:37:14.786Z,98684.41
2023-03-13T14:40:30.115Z,98670.09
2023-03-13T14:43:36.315Z,98677.78
2023-03-13T14:46:42.000Z,98679.09
2023-03-13T14:49:47.128Z,98671.06
2023-03-13T14:52:53.564Z,98674.72
2023-03-13T14:56:12.063Z,98653.22
2023-03-13T14:59:18.152Z,98658.50
2023-03-13T15:02:22.879Z,98659.66
2023-03-13T15:05:33.810Z,98633.28
2023-03-13T15:08:39.551Z,98642.13
2023-03-13T15:11:44.602Z,98626.41
2023-03-13T15:14:49.110Z,98646.84
2023-03-13T15:17:51.787Z,98640.72
2023-03-13T15:20:56.482Z,98624.31
2023-03-13T15:24:04.136Z,98625.38
2023-03-13T15:27:15.764Z,98626.22
2023-03-13T15:30:20.327Z,98621.78
2023-03-13T15:33:24.843Z,98618.56
2023-03-13T15:36:28.855Z,98631.16
2023-03-13T15:39:33.016Z,98621.13
2023-03-13T15:42:35.779Z,98617.31
2023-03-13T15:45:40.393Z,98616.16
2023-03-13T15:48:43.196Z,98603.13
2023-03-13T15:51:46.755Z,98597.38
2023-03-13T15:54:52.148Z,98597.81
2023-03-13T15:57:54.967Z,98591.03
2023-03-13T16:00:58.359Z,98585.47
2023-03-13T16:04:01.175Z,98573.94
2023-03-13T16:07:10.002Z,98572.38
2023-03-13T16:10:21.615Z,98581.84
2023-03-13T16:13:26.697Z,98572.69
2023-03-13T16:16:31.509Z,98553.53
2023-03-13T16:19:34.230Z,98564.22
2023-03-13T16:22:37.088Z,98555.09
2023-03-13T16:25:41.359Z,98553.28
2023-03-13T16:28:44.853Z,98541.66
2023-03-13T16:31:47.642Z,98556.47
2023-03-13T16:34:50.519Z,98536.53
2023-03-13T16:37:53.303Z,98544.00
2023-03-13T16:40:57.333Z,98550.69
2023-03-13T16:44:00.133Z,98554.78
2023-03-13T16:47:06.702Z,98566.16
2023-03-13T16:50:22.524Z,98563.09
2023-03-13T16:53:25.189Z,98563.97
2023-03-13T16:56:31.569Z,98553.00
2023-03-13T16:59:34.252Z,98549.69
2023-03-13T17:02:37.657Z,98540.44
2023-03-13T17:05:40.327Z,98528.91
2023-03-13T17:08:44.019Z,98531.03
2023-03-13T17:11:48.130Z,98522.53
2023-03-13T17:14:50.786Z,98525.28
2023-03-13T17:17:54.272Z,98532.91
2023-03-13T17:20:57.144Z,98537.44
2023-03-13T17:24:00.485Z,98543.34
2023-03-13T17:27:04.822Z,98551.25
2023-03-13T17:30:19.239Z,98542.50
2023-03-13T17:33:21.920Z,98545.34
2023-03-13T17:36:27.164Z,98546.59
2023-03-13T17:39:29.798Z,98545.91
2023-03-13T17:42:33.843Z,98557.16
2023-03-13T17:45:37.331Z,98548.16
2023-03-13T17:48:40.021Z,98559.72
2023-03-13T17:51:44.404Z,98567.84
2023-03-13T17:54:47.055Z,98565.59
2023-03-13T17:57:53.100Z,98555.25
2023-03-13T18:00:55.809Z,98561.56
2023-03-13T18:03:59.180Z,98558.19
2023-03-13T18:07:01.972Z,98562.41
2023-03-13T18:10:07.216Z,98560.72
2023-03-13T18:13:11.256Z,98556.38
2023-03-13T18:16:20.249Z,98560.59
2023-03-13T18:19:25.567Z,98553.56
2023-03-13T18:22:28.337Z,98558.06
2023-03-13T18:25:31.044Z,98567.34
2023-03-13T18:28:35.027Z,98569.59
2023-03-13T18:31:37.758Z,98564.28
2023-03-13T18:34:40.855Z,98570.41
2023-03-13T18:37:45.741Z,98564.50
2023-03-13T18:40:48.404Z,98577.16
2023-03-13T18:43:52.880Z,98577.84
2023-03-13T18:46:55.645Z,98585.31
2023-03-13T18:49:58.261Z,98577.16
2023-03-13T18:53:01.726Z,98579.97
2023-03-13T18:56:15.167Z,98576.03
2023-03-13T18:59:22.570Z,98586.56
2023-03-13T19:02:25.290Z,98583.47
2023-03-13T19:05:28.014Z,98591.19
2023-03-13T19:08:30.857Z,98595.66
2023-03-13T19:11:34.219Z,98598.75
2023-03-13T19:14:38.283Z,98594.53
2023-03-13T19:17:41.763Z,98590.88
2023-03-13T19:20:44.330Z,98607.03
2023-03-13T19:23:47.069Z,98605.19
2023-03-13T19:26:53.706Z,98598.72
2023-03-13T19:29:57.765Z,98599.84
2023-03-13T19:33:00.644Z,98593.41
2023-03-13T19:36:03.441Z,98604.31
2023-03-13T19:39:13.948Z,98608.22
2023-03-13T19:42:16.627Z,98603.59
2023-03-13T19:45:21.997Z,98594.00
2023-03-13T19:48:24.798Z,98597.81
2023-03-13T19:51:28.929Z,98603.69
2023-03-13T19:54:31.758Z,98603.97
2023-03-13T19:57:34.444Z,98594.69
2023-03-13T20:00:38.656Z,98598.06
2023-03-13T20:03:41.749Z,98603.69
2023-03-13T20:06:45.328Z,98595.00
2023-03-13T20:09:47.991Z,98590.84
2023-03-13T20:12:50.736Z,98577.28
2023-03-13T20:15:55.005Z,98572.38
2023-03-13T20:18:58.598Z,98581.97
2023-03-13T20:22:05.031Z,98568.84
2023-03-13T20:25:08.736Z,98558.84
2023-03-13T20:28:11.666Z,98571.47
2023-03-13T20:31:17.308Z,98568.66
2023-03-13T20:34:20.153Z,98575.81
2023-03-13T20:37:22.877Z,98577.13
2023-03-13T20:40:25.633Z,98581.03
2023-03-13T20:43:29.273Z,98579.38
2023-03-13T20:46:33.551Z,98575.38
2023-03-13T20:49:36.366Z,98572.00
2023-03-13T20:52:39.261Z,98556.66
2023-03-13T20:55:42.381Z,98554.44
2023-03-13T20:58:45.289Z,98559.25
2023-03-13T21:01:49.432Z,98556.84
2023-03-13T21:04:52.190Z,98556.22
2023-03-13T21:07:55.204Z,98543.63
2023-03-13T21:10:57.940Z,98537.06
2023-03-13T21:14:00.652Z,98539.94
2023-03-13T21:17:04.869Z,98537.72
2023-03-13T21:20:11.691Z,98546.56
2023-03-13T21:23:14.406Z,98554.22
2023-03-13T21:26:17.106Z,98572.22
2023-03-13T21:29:20.054Z,98570.31
2023-03-13T21:32:24.647Z,98570.16
2023-03-13T21:35:27.533Z,98566.53
2023-03-13T21:38:30.284Z,98568.44
2023-03-13T21:41:35.080Z,98563.09
2023-03-13T21:44:37.778Z,98568.91
2023-03-13T21:47:41.826Z,98573.34
2023-03-13T21:50:44.543Z,98575.78
2023-03-13T21:53:47.394Z,98579.69
2023-03-13T21:56:50.491Z,98582.84
2023-03-13T21:59:53.254Z,98580.59
2023-03-13T22:02:57.577Z,98582.97
2023-03-13T22:06:00.483Z,98581.28
2023-03-13T22:09:03.969Z,98573.63
2023-03-13T22:12:06.854Z,98557.69
2023-03-13T22:15:11.197Z,98541.03
2023-03-13T22:18:16.138Z,98533.81
2023-03-13T22:21:19.340Z,98535.53
2023-03-13T22:24:22.329Z,98523.50
2023-03-13T22:27:25.419Z,98528.31
2023-03-13T22:30:28.099Z,98526.44
2023-03-13T22:33:33.292Z,98538.69
2023-03-13T22:36:37.759Z,98558.41
2023-03-13T22:39:40.551Z,98549.13
2023-03-13T22:42:43.247Z,98551.34
2023-03-13T22:45:48.662Z,98554.41
2023-03-13T22:48:52.872Z,98545.34
2023-03-13T22:51:55.759Z,98540.47
2023-03-13T22:54:58.599Z,98540.19
2023-03-13T22:58:01.763Z,98524.00
2023-03-13T23:01:07.868Z,98525.25
2023-03-13T23:04:12.029Z,98514.88
2023-03-13T23:07:14.976Z,98507.59
2023-03-13T23:10:18.568Z,98518.69
2023-03-13T23:13:21.333Z,98525.03
2023-03-13T23:16:24.023Z,98504.09
2023-03-13T23:19:28.212Z,98502.75
2023-03-13T23:22:32.815Z,98507.34
2023-03-13T23:25:35.823Z,98497.69
2023-03-13T23:28:40.097Z,98492.97
2023-03-13T23:31:43.045Z,98487.28
2023-03-13T23:34:47.057Z,98495.44
2023-03-13T23:37:53.769Z,98499.91
2023-03-13T23:40:56.585Z,98504.41
2023-03-13T23:44:00.827Z,98498.06
2023-03-13T23:47:03.681Z,98505.66
2023-03-13T23:50:08.979Z,98497.47
2023-03-13T23:53:11.743Z,98483.59
2023-03-13T23:56:14.987Z,98468.28
2023-03-13T23:59:18.237Z,98480.25
